Time;durP1;ratioP1;P1;durP2;ratioP2;P2;SDS_P1;SDS_P2;PMS_P1;PMS_P2;Temp;Humidity;BMP_temperature;BMP_pressure;BME280_temperature;BME280_humidity;BME280_pressure;Samples;Min_cycle;Max_cycle;Signal;HPM_P1;HPM_P2
2022/09/07 00:01:24;;;;;;;1.90;1.58;;;14.40;67.80;;;;;;5053564;28;20059;-75
2022/09/07 00:03:54;;;;;;;2.20;1.90;;;14.40;67.70;;;;;;5021784;28;20484;-76
2022/09/07 00:06:21;;;;;;;4.35;2.10;;;14.30;67.80;;;;;;5020407;28;20067;-76
2022/09/07 00:08:47;;;;;;;2.97;1.63;;;14.30;67.80;;;;;;5020173;28;20124;-76
2022/09/07 00:11:16;;;;;;;2.80;2.00;;;14.30;67.80;;;;;;5023948;28;20124;-77
2022/09/07 00:13:43;;;;;;;2.25;1.60;;;14.30;67.90;;;;;;5023198;28;20040;-77
2022/09/07 00:16:12;;;;;;;1.65;1.55;;;14.30;68.00;;;;;;5020967;28;20038;-75
2022/09/07 00:18:39;;;;;;;3.10;1.73;;;14.30;68.10;;;;;;5007453;28;20038;-77
2022/09/07 00:21:08;;;;;;;2.83;1.80;;;14.30;68.10;;;;;;5021809;28;20124;-77
2022/09/07 00:23:36;;;;;;;2.00;1.80;;;14.20;67.80;;;;;;5026081;28;20126;-77
2022/09/07 00:26:09;;;;;;;5.85;2.20;;;14.20;67.60;;;;;;5030764;28;20076;-76
2022/09/07 00:28:36;;;;;;;5.90;1.95;;;14.20;68.20;;;;;;5031120;28;20045;-76
2022/09/07 00:31:03;;;;;;;4.15;1.90;;;14.20;67.70;;;;;;5024876;28;20405;-75
2022/09/07 00:33:30;;;;;;;1.80;1.70;;;14.10;67.60;;;;;;5020298;28;20391;-75
2022/09/07 00:35:57;;;;;;;2.25;2.05;;;14.00;67.80;;;;;;5025402;28;20109;-77
2022/09/07 00:38:23;;;;;;;2.22;2.03;;;14.10;68.00;;;;;;5025702;28;20065;-76
2022/09/07 00:40:49;;;;;;;2.30;1.65;;;14.00;68.00;;;;;;5021721;28;20381;-76
2022/09/07 00:43:35;;;;;;;4.82;2.00;;;14.00;68.10;;;;;;5021368;28;20068;-76
2022/09/07 00:46:03;;;;;;;2.65;2.10;;;14.00;68.20;;;;;;5022576;28;20095;-77
2022/09/07 00:48:49;;;;;;;2.80;1.98;;;14.00;68.30;;;;;;5022015;28;20037;-75
2022/09/07 00:51:24;;;;;;;5.15;2.20;;;14.00;68.30;;;;;;5018869;28;20045;-74
2022/09/07 00:53:55;;;;;;;;;;;14.00;68.20;;;;;;5020615;28;20037;-75
2022/09/07 00:56:25;;;;;;;2.72;2.10;;;13.90;68.30;;;;;;5023948;28;20343;-75
2022/09/07 00:58:51;;;;;;;3.55;1.92;;;13.90;68.30;;;;;;5018478;28;20044;-75
2022/09/07 01:01:18;;;;;;;2.10;1.90;;;13.90;68.30;;;;;;5021661;28;20656;-75
2022/09/07 01:03:48;;;;;;;1.98;1.83;;;13.80;68.30;;;;;;5019418;28;20025;-74
2022/09/07 01:06:33;;;;;;;2.63;2.10;;;13.80;68.20;;;;;;5020551;28;20412;-76
2022/09/07 01:09:04;;;;;;;2.88;2.17;;;13.80;68.00;;;;;;5020443;28;20041;-75
2022/09/07 01:11:33;;;;;;;2.05;1.85;;;13.80;68.00;;;;;;5018655;28;20034;-75
2022/09/07 01:14:01;;;;;;;2.20;2.00;;;13.80;68.10;;;;;;5019888;28;20039;-75
2022/09/07 01:16:45;;;;;;;3.72;2.10;;;13.70;68.00;;;;;;5018761;28;20033;-76
2022/09/07 01:19:34;;;;;;;7.47;2.17;;;13.70;68.00;;;;;;5020054;28;20057;-75
2022/09/07 01:22:18;;;;;;;1.98;1.88;;;13.70;68.00;;;;;;5020434;28;20050;-75
2022/09/07 01:25:05;;;;;;;2.15;1.92;;;13.70;68.00;;;;;;5023109;28;20037;-75
2022/09/07 01:27:50;;;;;;;2.65;2.00;;;13.70;67.90;;;;;;5019670;28;20088;-75
2022/09/07 01:30:22;;;;;;;2.22;1.95;;;13.70;67.90;;;;;;5017979;28;20420;-75
2022/09/07 01:33:02;;;;;;;2.63;1.75;;;13.60;67.80;;;;;;5020796;28;20030;-75
2022/09/07 01:35:47;;;;;;;3.15;1.83;;;13.60;68.00;;;;;;5022110;28;20026;-75
2022/09/07 01:38:29;;;;;;;3.00;2.00;;;13.60;68.00;;;;;;5038955;28;20435;-75
2022/09/07 01:41:04;;;;;;;2.33;2.13;;;13.60;68.10;;;;;;5020823;28;20569;-75
2022/09/07 01:43:43;;;;;;;2.42;2.03;;;13.60;68.20;;;;;;5023056;28;20033;-75
2022/09/07 01:46:20;;;;;;;2.20;1.70;;;13.60;68.20;;;;;;5020399;28;20042;-75
2022/09/07 01:48:49;;;;;;;2.22;2.00;;;13.50;68.20;;;;;;5020325;28;20140;-75
2022/09/07 01:51:17;;;;;;;1.90;1.70;;;13.50;68.10;;;;;;5020200;28;20391;-75
2022/09/07 01:53:51;;;;;;;2.45;2.10;;;13.50;68.10;;;;;;5051866;28;20037;-75
2022/09/07 01:56:29;;;;;;;2.05;1.85;;;13.50;68.10;;;;;;5019888;28;20022;-75
2022/09/07 01:58:59;;;;;;;2.30;2.10;;;13.50;68.30;;;;;;5021293;28;20467;-75
2022/09/07 02:01:34;;;;;;;2.30;2.10;;;13.50;68.20;;;;;;5022154;28;20044;-76
2022/09/07 02:04:14;;;;;;;2.63;2.25;;;13.50;68.30;;;;;;5019687;28;20038;-76
2022/09/07 02:07:02;;;;;;;2.45;2.00;;;13.40;68.20;;;;;;5020370;28;20076;-76
2022/09/07 02:09:34;;;;;;;2.90;2.42;;;13.40;68.30;;;;;;5023053;28;20472;-75
2022/09/07 02:12:06;;;;;;;2.03;1.75;;;13.50;68.50;;;;;;5017892;28;20072;-75
2022/09/07 02:14:41;;;;;;;2.67;2.15;;;13.40;68.50;;;;;;5022909;28;20057;-76
2022/09/07 02:17:23;;;;;;;2.15;1.95;;;13.40;68.50;;;;;;5046663;28;20228;-76
2022/09/07 02:19:53;;;;;;;2.10;1.98;;;13.40;68.60;;;;;;5027161;28;20049;-76
2022/09/07 02:22:26;;;;;;;2.67;1.83;;;13.30;68.60;;;;;;5026441;28;20091;-74
2022/09/07 02:24:57;;;;;;;2.78;2.03;;;13.30;68.60;;;;;;5023194;28;20033;-75
2022/09/07 02:27:40;;;;;;;3.10;2.22;;;13.30;68.80;;;;;;5023317;28;20041;-75
2022/09/07 02:30:07;;;;;;;2.10;1.90;;;13.30;68.90;;;;;;5037448;28;20041;-76
2022/09/07 02:32:33;;;;;;;2.17;1.95;;;13.30;68.80;;;;;;5027201;28;20064;-76
2022/09/07 02:34:59;;;;;;;3.05;2.30;;;13.20;68.90;;;;;;5039417;28;20072;-76
2022/09/07 02:37:27;;;;;;;1.80;1.70;;;13.20;68.80;;;;;;5024683;28;20033;-76
2022/09/07 02:39:53;;;;;;;2.05;1.90;;;13.30;68.80;;;;;;5023819;28;20044;-76
2022/09/07 02:42:19;;;;;;;2.40;2.20;;;13.20;68.90;;;;;;5023456;28;20085;-75
2022/09/07 02:44:46;;;;;;;2.40;2.03;;;13.20;68.80;;;;;;5023134;28;20041;-76
2022/09/07 02:47:25;;;;;;;2.55;2.17;;;13.20;68.90;;;;;;5024511;28;20057;-76
2022/09/07 02:50:18;;;;;;;1.90;1.80;;;13.20;68.90;;;;;;5021307;28;20030;-76
2022/09/07 02:52:44;;;;;;;2.45;1.88;;;13.20;68.90;;;;;;5023988;28;20067;-76
2022/09/07 02:55:30;;;;;;;1.90;1.80;;;13.20;68.80;;;;;;5022785;28;20061;-77
2022/09/07 02:58:29;;;;;;;3.00;2.30;;;13.20;69.00;;;;;;5023800;28;20631;-77
2022/09/07 03:01:38;;;;;;;2.25;1.88;;;13.20;69.10;;;;;;5027990;28;20037;-76
2022/09/07 03:04:17;;;;;;;3.22;2.13;;;13.10;69.20;;;;;;5040785;28;20458;-76
2022/09/07 03:06:50;;;;;;;3.05;2.00;;;13.10;69.30;;;;;;5048965;28;20097;-75
2022/09/07 03:09:21;;;;;;;2.25;1.80;;;13.10;69.10;;;;;;5042277;28;20508;-76
2022/09/07 03:11:48;;;;;;;3.67;2.05;;;13.10;69.00;;;;;;5039163;28;20393;-77
2022/09/07 03:14:17;;;;;;;2.13;1.92;;;13.10;69.00;;;;;;5040266;28;20033;-76
2022/09/07 03:16:43;;;;;;;2.83;1.92;;;13.10;69.00;;;;;;5041118;28;20037;-75
2022/09/07 03:19:09;;;;;;;2.30;1.77;;;13.10;68.90;;;;;;5041191;28;20033;-74
2022/09/07 03:21:35;;;;;;;2.97;1.88;;;13.10;69.00;;;;;;5022391;28;20041;-75
2022/09/07 03:24:01;;;;;;;2.10;1.83;;;13.10;69.00;;;;;;5040095;28;20440;-75
2022/09/07 03:26:27;;;;;;;1.80;1.70;;;13.10;68.90;;;;;;5040665;28;20436;-76
2022/09/07 03:28:53;;;;;;;2.08;1.85;;;13.00;68.90;;;;;;5038969;28;20029;-76
2022/09/07 03:31:19;;;;;;;2.35;1.80;;;13.10;69.00;;;;;;5022751;28;20131;-76
2022/09/07 03:33:45;;;;;;;1.88;1.77;;;13.10;69.00;;;;;;5027507;28;20670;-76
2022/09/07 03:36:11;;;;;;;3.58;1.80;;;13.00;69.00;;;;;;5038580;28;20039;-73
2022/09/07 03:38:37;;;;;;;2.78;1.80;;;13.10;69.00;;;;;;5023191;28;20121;-75
2022/09/07 03:41:05;;;;;;;1.73;1.60;;;13.10;69.30;;;;;;5001724;28;20058;-76
2022/09/07 03:43:32;;;;;;;2.55;1.73;;;13.00;69.60;;;;;;5002300;28;20040;-76
2022/09/07 03:46:00;;;;;;;1.90;1.50;;;13.00;69.90;;;;;;5002383;28;20050;-75
2022/09/07 03:48:29;;;;;;;1.73;1.50;;;13.00;70.20;;;;;;5001495;28;20643;-78
2022/09/07 03:51:01;;;;;;;1.98;1.85;;;13.10;70.30;;;;;;5002288;28;20448;-76
2022/09/07 03:53:29;;;;;;;1.73;1.63;;;13.10;70.10;;;;;;4999224;28;20042;-77
2022/09/07 03:55:59;;;;;;;1.58;1.45;;;13.10;70.10;;;;;;5001083;28;20049;-76
2022/09/07 03:58:28;;;;;;;2.70;1.70;;;13.10;70.10;;;;;;5004100;28;20037;-76
2022/09/07 04:00:54;;;;;;;2.05;1.75;;;13.10;70.30;;;;;;5005121;28;20030;-77
2022/09/07 04:03:20;;;;;;;3.55;1.83;;;13.10;70.20;;;;;;5004298;28;20123;-76
2022/09/07 04:05:46;;;;;;;4.53;1.80;;;13.20;70.30;;;;;;5017998;28;20420;-77
2022/09/07 04:08:12;;;;;;;2.65;1.60;;;13.20;70.40;;;;;;5025654;28;20025;-77
2022/09/07 04:10:39;;;;;;;2.08;1.88;;;13.20;70.40;;;;;;5025509;28;20030;-76
2022/09/07 04:13:06;;;;;;;3.40;1.63;;;13.20;70.50;;;;;;5039453;28;20060;-76
2022/09/07 04:15:32;;;;;;;2.88;1.83;;;13.20;70.70;;;;;;5023753;28;20037;-75
2022/09/07 04:17:58;;;;;;;2.28;1.77;;;13.20;70.00;;;;;;5024268;28;20049;-76
2022/09/07 04:20:24;;;;;;;2.38;1.63;;;13.30;69.90;;;;;;5024354;28;20087;-75
2022/09/07 04:22:50;;;;;;;1.95;1.75;;;13.30;70.00;;;;;;5024679;28;20033;-75
2022/09/07 04:25:17;;;;;;;2.08;1.83;;;13.20;69.90;;;;;;5008963;28;20142;-75
2022/09/07 04:27:43;;;;;;;1.73;1.42;;;13.30;69.80;;;;;;5025664;28;20040;-71
2022/09/07 04:30:10;;;;;;;1.88;1.50;;;13.30;69.70;;;;;;5023884;28;20025;-74
2022/09/07 04:32:36;;;;;;;1.88;1.52;;;13.30;69.70;;;;;;5024795;28;20029;-75
2022/09/07 04:35:02;;;;;;;3.15;1.58;;;13.20;70.40;;;;;;5028111;28;20060;-74
2022/09/07 04:37:29;;;;;;;1.98;1.50;;;13.30;71.10;;;;;;5039186;28;20037;-74
2022/09/07 04:39:54;;;;;;;4.93;1.80;;;13.30;71.20;;;;;;5036911;28;20128;-74
2022/09/07 04:42:21;;;;;;;2.55;2.00;;;13.30;71.40;;;;;;5034064;28;20124;-75
2022/09/07 04:44:49;;;;;;;3.53;2.05;;;13.30;72.10;;;;;;5035077;28;20025;-75
2022/09/07 04:47:16;;;;;;;6.88;2.33;;;13.40;73.10;;;;;;5033993;28;20028;-75
2022/09/07 04:49:42;;;;;;;3.75;2.42;;;13.50;73.80;;;;;;5038056;28;20508;-72
2022/09/07 04:52:08;;;;;;;4.68;2.20;;;13.60;74.00;;;;;;5029895;28;20120;-71
2022/09/07 04:54:34;;;;;;;4.57;2.40;;;13.60;74.10;;;;;;5022569;28;20512;-73
2022/09/07 04:57:00;;;;;;;2.53;2.13;;;13.70;73.90;;;;;;5051122;28;20047;-72
2022/09/07 04:59:26;;;;;;;4.63;2.30;;;13.70;73.30;;;;;;5023172;28;20571;-73
2022/09/07 05:01:52;;;;;;;3.00;2.10;;;13.80;73.40;;;;;;5020011;28;20046;-69
2022/09/07 05:04:18;;;;;;;10.73;3.70;;;13.90;73.40;;;;;;5023102;28;20769;-70
2022/09/07 05:06:44;;;;;;;6.18;3.03;;;14.00;75.00;;;;;;5019645;28;20516;-69
2022/09/07 05:09:10;;;;;;;11.75;2.78;;;14.30;76.50;;;;;;5019989;28;20065;-69
2022/09/07 05:11:36;;;;;;;7.43;2.80;;;14.60;76.80;;;;;;5052152;28;20041;-70
2022/09/07 05:14:03;;;;;;;8.10;2.72;;;14.90;76.50;;;;;;5038659;28;20045;-69
2022/09/07 05:16:30;;;;;;;10.00;2.63;;;15.10;76.00;;;;;;5028069;28;20452;-69
2022/09/07 05:18:59;;;;;;;8.32;2.97;;;15.30;75.40;;;;;;5021597;28;20036;-70
2022/09/07 05:21:29;;;;;;;7.78;2.75;;;15.50;74.60;;;;;;5020587;28;20030;-70
2022/09/07 05:23:56;;;;;;;4.88;2.60;;;15.60;73.90;;;;;;5018784;28;20036;-70
2022/09/07 05:26:26;;;;;;;4.03;2.15;;;15.80;73.20;;;;;;5021264;28;20128;-70
2022/09/07 05:28:52;;;;;;;4.45;2.47;;;15.90;72.60;;;;;;5020399;28;20399;-70
2022/09/07 05:31:21;;;;;;;3.13;2.20;;;16.00;71.90;;;;;;5023161;28;20079;-70
2022/09/07 05:33:52;;;;;;;4.22;2.70;;;16.20;71.80;;;;;;5020710;28;20030;-70
2022/09/07 05:36:19;;;;;;;4.25;1.90;;;16.30;70.90;;;;;;5018619;28;20075;-70
2022/09/07 05:38:46;;;;;;;3.53;1.92;;;16.30;70.40;;;;;;5019497;28;20033;-70
2022/09/07 05:41:18;;;;;;;3.40;2.00;;;16.40;70.50;;;;;;5020000;28;20033;-70
2022/09/07 05:43:45;;;;;;;3.72;1.80;;;16.50;69.50;;;;;;5019947;28;20068;-70
2022/09/07 05:46:11;;;;;;;3.92;1.70;;;16.60;69.10;;;;;;5019843;28;20038;-70
2022/09/07 05:48:37;;;;;;;3.63;2.10;;;16.60;68.80;;;;;;5022487;28;20080;-70
2022/09/07 05:51:04;;;;;;;3.22;1.88;;;16.70;68.50;;;;;;5024443;28;20037;-70
2022/09/07 05:53:30;;;;;;;3.28;1.95;;;16.80;68.10;;;;;;5025007;28;20041;-70
2022/09/07 05:56:00;;;;;;;3.67;1.88;;;16.80;68.10;;;;;;5054733;28;20037;-70
2022/09/07 05:58:27;;;;;;;2.53;1.83;;;16.90;68.70;;;;;;5024031;28;20032;-72
2022/09/07 06:01:01;;;;;;;3.13;2.20;;;17.00;68.80;;;;;;5023158;28;20040;-73
2022/09/07 06:03:27;;;;;;;3.70;2.08;;;17.10;68.00;;;;;;5023107;28;20041;-73
2022/09/07 06:06:07;;;;;;;4.18;1.88;;;17.20;65.70;;;;;;5021706;28;20050;-73
2022/09/07 06:08:35;;;;;;;3.50;2.35;;;17.20;64.30;;;;;;5021682;28;20025;-73
2022/09/07 06:11:05;;;;;;;2.50;1.77;;;17.20;63.90;;;;;;5022304;28;20037;-73
2022/09/07 06:13:32;;;;;;;3.10;1.98;;;17.10;63.60;;;;;;5021771;28;20030;-72
2022/09/07 06:16:02;;;;;;;7.95;2.15;;;17.00;63.10;;;;;;5021524;28;20037;-72
2022/09/07 06:18:30;;;;;;;6.70;2.92;;;16.90;63.00;;;;;;5023644;28;20040;-72
2022/09/07 06:21:04;;;;;;;4.03;2.08;;;16.80;63.20;;;;;;5028645;28;20032;-72
2022/09/07 06:23:31;;;;;;;3.88;2.22;;;16.80;63.30;;;;;;5032433;28;20029;-72
2022/09/07 06:25:57;;;;;;;2.65;2.20;;;16.70;63.40;;;;;;5033145;28;20034;-72
2022/09/07 06:28:32;;;;;;;3.35;2.38;;;16.80;63.80;;;;;;5033234;28;20068;-72
2022/09/07 06:31:03;;;;;;;4.75;4.00;;;16.70;63.60;;;;;;5030273;28;20467;-72
2022/09/07 06:33:29;;;;;;;17.85;11.70;;;16.90;63.10;;;;;;5029266;28;20115;-72
2022/09/07 06:35:59;;;;;;;13.02;8.10;;;17.20;62.40;;;;;;5032793;28;20416;-72
2022/09/07 06:38:30;;;;;;;10.75;7.43;;;17.60;61.80;;;;;;5032223;28;20037;-72
2022/09/07 06:41:05;;;;;;;6.18;5.18;;;18.00;60.80;;;;;;5030269;28;20052;-73
2022/09/07 06:43:32;;;;;;;6.38;5.07;;;18.10;60.10;;;;;;5032693;28;20038;-73
2022/09/07 06:45:57;;;;;;;5.40;3.90;;;18.30;60.10;;;;;;5043512;28;20046;-73
2022/09/07 06:48:24;;;;;;;4.47;3.20;;;18.30;59.80;;;;;;5023566;28;20037;-73
2022/09/07 06:51:03;;;;;;;3.65;3.00;;;18.20;59.50;;;;;;5023445;28;20029;-73
2022/09/07 06:53:31;;;;;;;4.28;2.67;;;18.20;59.60;;;;;;5022786;28;20069;-72
2022/09/07 06:55:58;;;;;;;3.17;2.50;;;18.20;59.80;;;;;;5022463;28;20059;-73
2022/09/07 06:58:24;;;;;;;2.70;2.50;;;18.20;59.70;;;;;;5053405;28;20034;-73
2022/09/07 07:00:50;;;;;;;3.42;2.75;;;18.40;59.40;;;;;;5022210;28;20030;-72
2022/09/07 07:03:17;;;;;;;3.40;2.08;;;18.50;59.10;;;;;;5022688;28;20092;-73
2022/09/07 07:05:53;;;;;;;4.40;2.38;;;18.70;59.20;;;;;;5023902;28;20041;-73
2022/09/07 07:08:21;;;;;;;2.42;1.83;;;18.90;58.50;;;;;;5019830;28;20439;-72
2022/09/07 07:10:48;;;;;;;3.33;2.30;;;19.00;58.40;;;;;;5021407;28;20435;-72
2022/09/07 07:13:14;;;;;;;3.60;2.30;;;18.90;58.10;;;;;;5035954;28;20029;-73
2022/09/07 07:15:41;;;;;;;5.45;2.05;;;18.80;57.60;;;;;;5022639;28;20037;-72
2022/09/07 07:18:07;;;;;;;3.50;2.35;;;18.80;58.20;;;;;;5021223;28;20033;-72
2022/09/07 07:20:37;;;;;;;4.93;2.22;;;18.70;59.20;;;;;;5022612;28;20029;-72
2022/09/07 07:23:04;;;;;;;2.20;2.00;;;18.70;59.90;;;;;;5025093;28;20045;-72
2022/09/07 07:25:32;;;;;;;3.45;2.33;;;18.60;60.10;;;;;;5023269;28;20136;-73
2022/09/07 07:27:58;;;;;;;3.53;2.40;;;18.60;61.10;;;;;;5021279;28;20046;-73
2022/09/07 07:30:24;;;;;;;3.35;2.13;;;18.50;60.30;;;;;;5025172;28;20037;-73
2022/09/07 07:32:50;;;;;;;3.92;2.38;;;18.60;60.50;;;;;;5022455;28;20117;-73
2022/09/07 07:35:16;;;;;;;4.25;1.98;;;18.60;60.60;;;;;;5019987;28;20148;-72
2022/09/07 07:37:42;;;;;;;2.25;1.83;;;18.60;60.40;;;;;;5055459;28;20033;-73
2022/09/07 07:40:11;;;;;;;3.17;2.00;;;18.60;60.50;;;;;;5022634;28;20456;-72
2022/09/07 07:42:38;;;;;;;4.57;2.30;;;18.60;61.70;;;;;;5021261;28;20033;-73
2022/09/07 07:45:07;;;;;;;3.05;2.00;;;18.70;61.70;;;;;;5022116;28;20511;-72
2022/09/07 07:47:34;;;;;;;3.17;1.95;;;18.80;63.00;;;;;;5053842;28;20462;-73
2022/09/07 07:50:01;;;;;;;3.20;2.17;;;18.80;62.60;;;;;;5007402;28;20820;-73
2022/09/07 07:52:35;;;;;;;2.75;2.00;;;18.60;61.10;;;;;;5020748;28;20069;-73
2022/09/07 07:55:01;;;;;;;4.82;2.20;;;18.50;60.70;;;;;;5024343;28;20120;-73
2022/09/07 07:57:28;;;;;;;2.92;2.13;;;18.40;61.50;;;;;;5021424;28;20121;-73
2022/09/07 07:59:54;;;;;;;5.22;2.20;;;18.50;63.50;;;;;;5020863;28;20033;-73
2022/09/07 08:02:20;;;;;;;4.13;2.15;;;18.40;61.90;;;;;;5024030;28;20041;-73
2022/09/07 08:04:46;;;;;;;8.77;2.40;;;18.40;62.00;;;;;;5036789;28;20409;-73
2022/09/07 08:07:12;;;;;;;2.50;2.30;;;18.40;61.50;;;;;;5023576;28;20037;-73
2022/09/07 08:09:40;;;;;;;3.40;2.05;;;18.40;60.90;;;;;;5037063;28;20033;-73
2022/09/07 08:12:08;;;;;;;4.25;2.03;;;18.30;61.10;;;;;;5019464;28;20134;-73
2022/09/07 08:14:40;;;;;;;3.67;1.90;;;18.30;62.00;;;;;;5023601;28;20087;-72
2022/09/07 08:17:07;;;;;;;5.70;1.90;;;18.40;62.70;;;;;;5039387;28;20400;-72
2022/09/07 08:19:33;;;;;;;4.45;1.83;;;18.40;61.50;;;;;;5037920;28;20119;-73
2022/09/07 08:21:59;;;;;;;1.92;1.60;;;18.40;61.40;;;;;;5041178;28;20114;-73
2022/09/07 08:24:25;;;;;;;4.00;1.58;;;18.40;61.30;;;;;;5039607;28;20033;-73
2022/09/07 08:26:51;;;;;;;3.47;1.50;;;18.30;61.90;;;;;;5027776;28;20025;-73
2022/09/07 08:29:17;;;;;;;4.80;2.13;;;18.30;62.30;;;;;;5041377;28;20475;-73
2022/09/07 08:31:43;;;;;;;4.78;2.38;;;18.30;61.20;;;;;;5039829;28;20042;-73
2022/09/07 08:34:09;;;;;;;4.05;2.00;;;18.30;60.70;;;;;;5039957;28;20033;-72
2022/09/07 08:36:35;;;;;;;3.80;1.77;;;18.30;59.50;;;;;;5040504;28;20040;-73
2022/09/07 08:39:02;;;;;;;2.50;1.65;;;18.30;59.70;;;;;;5044379;28;20516;-73
2022/09/07 08:41:34;;;;;;;2.83;1.67;;;18.30;60.50;;;;;;5054937;28;20591;-73
2022/09/07 08:44:21;;;;;;;3.13;1.60;;;18.20;60.40;;;;;;5042821;28;20037;-73
2022/09/07 08:46:53;;;;;;;2.53;1.67;;;18.30;60.70;;;;;;5039958;28;20037;-73
2022/09/07 08:49:28;;;;;;;2.20;1.85;;;18.30;60.50;;;;;;5055538;28;20037;-73
2022/09/07 08:52:03;;;;;;;3.88;1.88;;;18.20;59.60;;;;;;5038797;28;20048;-72
2022/09/07 08:54:29;;;;;;;2.25;1.50;;;18.20;59.60;;;;;;5040373;28;20041;-72
2022/09/07 08:57:01;;;;;;;1.65;1.55;;;18.20;59.80;;;;;;5039569;28;20091;-72
2022/09/07 08:59:35;;;;;;;1.60;1.50;;;18.30;60.20;;;;;;5042020;28;20044;-72
2022/09/07 09:02:01;;;;;;;3.58;1.13;;;18.30;59.80;;;;;;5040863;28;20048;-72
2022/09/07 09:04:29;;;;;;;2.47;1.50;;;18.30;59.60;;;;;;5039001;28;20049;-72
2022/09/07 09:07:09;;;;;;;3.90;1.63;;;18.30;59.80;;;;;;5040497;28;20561;-73
2022/09/07 09:10:02;;;;;;;1.90;1.40;;;18.20;60.00;;;;;;5039147;28;20123;-72
2022/09/07 09:13:25;;;;;;;1.85;1.40;;;18.20;60.00;;;;;;5037266;28;20129;-72
2022/09/07 09:16:22;;;;;;;2.60;1.40;;;18.10;59.30;;;;;;4994754;28;20043;-73
2022/09/07 09:18:54;;;;;;;2.53;1.80;;;18.10;59.60;;;;;;4970977;28;20034;-72
2022/09/07 09:21:20;;;;;;;4.90;1.55;;;18.00;59.50;;;;;;4984158;28;20069;-72
2022/09/07 09:23:50;;;;;;;4.40;1.73;;;18.00;59.70;;;;;;5000113;28;20475;-72
2022/09/07 09:26:16;;;;;;;4.10;1.67;;;18.00;59.30;;;;;;4987232;28;20476;-73
2022/09/07 09:28:42;;;;;;;5.57;1.63;;;18.00;57.40;;;;;;4974716;28;20034;-72
2022/09/07 09:31:20;;;;;;;1.95;1.42;;;17.90;57.60;;;;;;5004029;28;20529;-73
2022/09/07 09:34:19;;;;;;;3.42;1.50;;;17.90;58.40;;;;;;4983997;28;20089;-72
2022/09/07 09:36:47;;;;;;;1.48;1.38;;;17.90;59.50;;;;;;4916619;29;20045;-72
2022/09/07 09:39:25;;;;;;;2.28;1.58;;;17.80;58.50;;;;;;4933529;29;20082;-72
2022/09/07 09:41:54;;;;;;;6.47;1.63;;;17.80;58.50;;;;;;4933488;29;20027;-73
2022/09/07 09:44:21;;;;;;;4.15;1.73;;;17.80;58.50;;;;;;4916019;29;20027;-73
2022/09/07 09:46:51;;;;;;;2.28;1.30;;;17.80;59.00;;;;;;4965613;28;20053;-73
2022/09/07 09:49:23;;;;;;;2.95;1.20;;;17.80;59.50;;;;;;4982104;28;20462;-73
2022/09/07 09:51:55;;;;;;;2.10;1.20;;;17.80;57.80;;;;;;4981914;28;20434;-73
2022/09/07 09:54:27;;;;;;;2.30;1.20;;;17.70;56.60;;;;;;4962485;28;20093;-73
2022/09/07 09:56:53;;;;;;;2.33;1.30;;;17.70;56.60;;;;;;4967123;28;20033;-73
2022/09/07 09:59:22;;;;;;;2.83;1.13;;;17.70;56.60;;;;;;4981763;28;20038;-73
2022/09/07 10:01:49;;;;;;;4.47;1.85;;;17.70;56.60;;;;;;4963967;28;20026;-72
2022/09/07 10:04:34;;;;;;;1.38;1.27;;;17.70;56.00;;;;;;4967152;28;20047;-72
2022/09/07 10:07:18;;;;;;;2.72;1.10;;;17.70;55.70;;;;;;4981618;28;20625;-72
2022/09/07 10:09:50;;;;;;;3.00;1.17;;;17.70;56.20;;;;;;4983473;28;20072;-72
2022/09/07 10:12:36;;;;;;;2.42;1.30;;;17.70;56.80;;;;;;4985046;28;20477;-71
2022/09/07 10:15:05;;;;;;;2.65;1.40;;;17.80;56.10;;;;;;5030949;28;20037;-72
2022/09/07 10:17:41;;;;;;;4.43;1.40;;;17.80;56.80;;;;;;5033829;28;20128;-72
2022/09/07 10:20:16;;;;;;;1.40;1.30;;;17.80;56.70;;;;;;5047871;28;20524;-73
2022/09/07 10:22:57;;;;;;;3.92;1.50;;;17.70;55.60;;;;;;5027841;28;20040;-76
2022/09/07 10:25:40;;;;;;;2.35;1.20;;;17.70;55.20;;;;;;5030141;28;20060;-73
2022/09/07 10:28:11;;;;;;;4.30;1.30;;;17.70;55.70;;;;;;5065369;28;20049;-73
2022/09/07 10:30:49;;;;;;;5.50;1.27;;;17.70;56.10;;;;;;5028892;28;20154;-73
2022/09/07 10:33:49;;;;;;;2.83;1.10;;;17.60;54.80;;;;;;5030066;28;20030;-73
2022/09/07 10:36:30;;;;;;;2.35;1.10;;;17.60;54.40;;;;;;5065114;28;20034;-72
2022/09/07 10:39:16;;;;;;;2.65;1.40;;;17.60;54.90;;;;;;5029621;28;20413;-73
2022/09/07 10:41:56;;;;;;;1.40;1.30;;;17.60;54.70;;;;;;5065781;28;20492;-73
2022/09/07 10:45:11;;;;;;;1.85;1.40;;;17.50;54.70;;;;;;5029710;28;20033;-73
2022/09/07 10:47:54;;;;;;;3.35;1.13;;;17.50;55.00;;;;;;5038779;28;20052;-73
2022/09/07 10:50:30;;;;;;;2.70;1.77;;;17.50;55.00;;;;;;5045762;28;20136;-73
2022/09/07 10:53:32;;;;;;;3.15;1.40;;;17.40;55.40;;;;;;5060962;28;20037;-73
2022/09/07 10:56:20;;;;;;;2.20;1.40;;;17.40;55.20;;;;;;5062287;28;20053;-72
2022/09/07 10:59:20;;;;;;;3.25;1.25;;;17.40;55.80;;;;;;5023728;28;20038;-78
2022/09/07 11:01:56;;;;;;;3.33;1.17;;;17.30;55.70;;;;;;5027706;28;20125;-72
2022/09/07 11:04:55;;;;;;;3.05;1.30;;;17.30;56.70;;;;;;5030914;28;20041;-73
2022/09/07 11:07:39;;;;;;;1.58;0.85;;;17.20;56.30;;;;;;5032303;28;20075;-72
2022/09/07 11:10:23;;;;;;;1.63;1.08;;;17.20;56.50;;;;;;5026688;28;20877;-72
2022/09/07 11:12:53;;;;;;;1.73;1.10;;;17.20;57.10;;;;;;5028870;28;20112;-73
2022/09/07 11:15:27;;;;;;;3.53;1.25;;;17.20;57.70;;;;;;5046727;28;20519;-72
2022/09/07 11:17:58;;;;;;;1.83;1.20;;;17.10;58.20;;;;;;5062949;28;20588;-73
2022/09/07 11:20:41;;;;;;;1.55;1.10;;;17.10;58.30;;;;;;5062620;28;20028;-73
2022/09/07 11:23:13;;;;;;;2.33;0.80;;;17.10;58.60;;;;;;5042812;28;20641;-73
2022/09/07 11:26:01;;;;;;;2.60;1.10;;;17.00;58.70;;;;;;5025499;28;20122;-73
2022/09/07 11:28:47;;;;;;;1.23;1.10;;;17.00;59.10;;;;;;5052487;28;20128;-72
2022/09/07 11:31:22;;;;;;;;;;;16.90;59.80;;;;;;5025182;28;20035;-73
2022/09/07 11:33:54;;;;;;;3.22;1.42;;;16.80;60.30;;;;;;5022493;28;19959;-72
2022/09/07 11:36:21;;;;;;;2.10;0.80;;;16.80;61.10;;;;;;5022032;28;20040;-72
2022/09/07 11:39:05;;;;;;;6.97;1.38;;;16.70;62.10;;;;;;5022157;28;20051;-72
2022/09/07 11:41:40;;;;;;;3.78;1.15;;;16.70;62.40;;;;;;5021478;28;20021;-72
2022/09/07 11:45:14;;;;;;;3.55;1.13;;;16.60;63.30;;;;;;5021535;28;20403;-72
2022/09/07 11:47:57;;;;;;;1.63;1.23;;;16.60;64.00;;;;;;4982523;28;20140;-72
2022/09/07 11:50:24;;;;;;;1.77;1.20;;;16.60;65.30;;;;;;4983175;28;20498;-71
2022/09/07 11:53:13;;;;;;;1.38;1.27;;;16.50;65.70;;;;;;4969096;28;20193;-71
2022/09/07 11:55:44;;;;;;;4.10;1.23;;;16.40;66.20;;;;;;4963639;28;20031;-72
2022/09/07 11:58:51;;;;;;;3.90;1.45;;;16.30;67.10;;;;;;4961976;28;20035;-72
2022/09/07 12:01:29;;;;;;;3.80;1.60;;;16.40;67.40;;;;;;4961672;28;20031;-72
2022/09/07 12:04:17;;;;;;;2.30;1.40;;;16.30;67.50;;;;;;4964751;28;20030;-72
2022/09/07 12:06:43;;;;;;;1.70;1.27;;;16.30;67.60;;;;;;4980211;28;20043;-75
2022/09/07 12:09:15;;;;;;;1.45;0.98;;;16.30;67.80;;;;;;4951613;28;20031;-74
2022/09/07 12:12:01;;;;;;;4.85;1.20;;;16.20;67.60;;;;;;4965262;28;20058;-75
2022/09/07 12:14:36;;;;;;;5.82;1.20;;;16.20;67.40;;;;;;4962432;28;20512;-74
2022/09/07 12:17:24;;;;;;;5.60;1.52;;;16.20;67.60;;;;;;4963382;28;20043;-75
2022/09/07 12:20:14;;;;;;;3.90;1.30;;;16.20;68.20;;;;;;5022168;28;20124;-74
2022/09/07 12:23:01;;;;;;;2.88;1.40;;;16.20;68.50;;;;;;5050867;28;20041;-74
2022/09/07 12:25:28;;;;;;;3.67;1.23;;;16.10;68.70;;;;;;5020956;28;20482;-74
2022/09/07 12:27:54;;;;;;;7.60;1.45;;;16.20;68.90;;;;;;5022577;28;20123;-74
2022/09/07 12:30:19;;;;;;;3.90;1.10;;;16.10;68.90;;;;;;5023808;28;20037;-75
2022/09/07 12:32:52;;;;;;;6.60;1.50;;;16.10;68.90;;;;;;5018491;28;20053;-74
2022/09/07 12:35:30;;;;;;;3.83;1.23;;;16.10;68.70;;;;;;5037577;28;20042;-75
2022/09/07 12:37:57;;;;;;;2.70;1.15;;;16.00;68.70;;;;;;5021367;28;20045;-75
2022/09/07 12:40:26;;;;;;;2.22;1.20;;;16.00;68.30;;;;;;5051132;28;20096;-72
2022/09/07 12:43:11;;;;;;;4.00;1.40;;;16.00;68.50;;;;;;5021347;28;20144;-72
2022/09/07 12:45:37;;;;;;;6.68;1.50;;;15.90;68.60;;;;;;5023023;28;20107;-72
2022/09/07 12:48:42;;;;;;;4.53;1.58;;;15.90;68.60;;;;;;5051667;28;20520;-72
2022/09/07 12:51:32;;;;;;;4.80;1.52;;;15.80;69.00;;;;;;5020195;28;21230;-72
2022/09/07 12:54:08;;;;;;;1.67;1.25;;;15.80;69.70;;;;;;5020633;28;20080;-72
2022/09/07 12:57:20;;;;;;;2.60;1.60;;;15.80;69.70;;;;;;5020873;28;20037;-72
2022/09/07 13:00:16;;;;;;;1.65;1.15;;;15.70;69.70;;;;;;4999876;28;20504;-72
2022/09/07 13:03:23;;;;;;;6.20;1.40;;;15.70;70.10;;;;;;5017349;28;20164;-72
2022/09/07 13:06:10;;;;;;;4.15;1.70;;;15.70;70.30;;;;;;5014976;28;20576;-71
2022/09/07 13:08:49;;;;;;;1.77;1.23;;;15.70;70.20;;;;;;5019863;28;20199;-72
2022/09/07 13:11:21;;;;;;;2.45;1.70;;;15.60;70.00;;;;;;5017048;28;20512;-73
2022/09/07 13:13:55;;;;;;;2.63;1.42;;;15.50;70.40;;;;;;5005193;28;20040;-72
2022/09/07 13:16:33;;;;;;;3.40;1.90;;;15.60;70.70;;;;;;5015731;28;20120;-72
2022/09/07 13:19:02;;;;;;;3.58;1.70;;;15.60;70.70;;;;;;5004937;28;20508;-73